createdAt,value
2017-10-27T00:00:07.949Z,27.43
2017-10-27T00:02:35.262Z,28.53
2017-10-27T00:05:02.916Z,24.87
2017-10-27T00:07:30.216Z,24.03
2017-10-27T00:09:57.918Z,27.67
2017-10-27T00:12:25.203Z,26.60
2017-10-27T00:14:52.524Z,25.70
2017-10-27T00:17:19.849Z,26.23
2017-10-27T00:19:47.168Z,22.33
2017-10-27T00:22:14.504Z,29.63
2017-10-27T00:24:41.824Z,33.80
2017-10-27T00:27:09.125Z,23.87
2017-10-27T00:29:36.454Z,22.70
2017-10-27T00:32:04.073Z,25.10
2017-10-27T00:34:31.396Z,23.63
2017-10-27T00:36:58.699Z,20.90
2017-10-27T00:39:26.012Z,28.50
2017-10-27T00:41:53.640Z,21.23
2017-10-27T00:44:20.956Z,22.00
2017-10-27T00:46:48.297Z,22.60
2017-10-27T00:49:15.610Z,19.83
2017-10-27T00:51:42.940Z,19.63
2017-10-27T00:54:10.437Z,19.23
2017-10-27T00:56:37.747Z,19.10
2017-10-27T00:59:05.123Z,19.40
2017-10-27T01:01:33.376Z,25.50
2017-10-27T01:04:00.709Z,19.10
2017-10-27T01:06:28.053Z,16.73
2017-10-27T01:08:55.517Z,26.17
2017-10-27T01:11:22.836Z,16.80
2017-10-27T01:13:51.123Z,14.27
2017-10-27T01:16:18.481Z,17.77
2017-10-27T01:18:45.772Z,14.40
2017-10-27T01:21:13.085Z,14.73
2017-10-27T01:23:40.485Z,14.40
2017-10-27T01:26:07.791Z,13.27
2017-10-27T01:28:35.097Z,15.80
2017-10-27T01:31:02.413Z,15.37
2017-10-27T01:33:29.767Z,15.27
2017-10-27T01:35:57.071Z,17.03
2017-10-27T01:38:24.366Z,17.20
2017-10-27T01:40:51.681Z,15.70
2017-10-27T01:43:19.000Z,16.07
2017-10-27T01:45:46.316Z,14.03
2017-10-27T01:48:13.676Z,17.33
2017-10-27T01:50:41.038Z,12.77
2017-10-27T01:53:08.336Z,16.73
2017-10-27T01:55:35.884Z,14.50
2017-10-27T01:58:03.224Z,11.60
2017-10-27T02:00:30.689Z,15.40
2017-10-27T02:02:58.001Z,13.47
2017-10-27T02:05:25.324Z,14.27
2017-10-27T02:07:52.642Z,18.77
2017-10-27T02:10:19.965Z,13.80
2017-10-27T02:12:47.276Z,13.93
2017-10-27T02:15:14.596Z,12.43
2017-10-27T02:17:41.901Z,15.47
2017-10-27T02:20:09.188Z,15.80
2017-10-27T02:22:36.520Z,16.40
2017-10-27T02:25:03.881Z,12.00
2017-10-27T02:27:32.104Z,10.73
2017-10-27T02:29:59.430Z,10.87
2017-10-27T02:32:26.740Z,12.57
2017-10-27T02:34:55.430Z,8.20
2017-10-27T02:37:22.747Z,11.70
2017-10-27T02:39:50.041Z,17.43
2017-10-27T02:42:17.359Z,12.77
2017-10-27T02:44:44.656Z,15.70
2017-10-27T02:47:11.964Z,10.77
2017-10-27T02:49:39.252Z,14.57
2017-10-27T02:52:06.601Z,12.50
2017-10-27T02:54:33.900Z,11.87
2017-10-27T02:57:01.218Z,11.40
2017-10-27T02:59:28.532Z,12.27
2017-10-27T03:01:55.887Z,10.47
2017-10-27T03:04:23.198Z,11.57
2017-10-27T03:06:50.484Z,20.80
2017-10-27T03:09:17.804Z,9.67
2017-10-27T03:11:45.112Z,8.37
2017-10-27T03:14:13.360Z,10.90
2017-10-27T03:16:40.701Z,8.50
2017-10-27T03:19:08.000Z,17.10
2017-10-27T03:21:35.328Z,7.90
2017-10-27T03:24:02.663Z,11.50
2017-10-27T03:26:29.961Z,8.43
2017-10-27T03:28:57.271Z,12.30
2017-10-27T03:31:24.591Z,14.50
2017-10-27T03:33:51.896Z,12.70
2017-10-27T03:36:19.224Z,9.50
2017-10-27T03:38:46.536Z,12.27
2017-10-27T03:41:13.873Z,10.13
2017-10-27T03:43:42.302Z,10.73
2017-10-27T03:46:09.626Z,16.80
2017-10-27T03:48:36.949Z,9.03
2017-10-27T03:51:05.207Z,14.03
2017-10-27T03:53:32.510Z,10.27
2017-10-27T03:55:59.833Z,9.60
2017-10-27T03:58:27.116Z,8.20
2017-10-27T04:00:54.768Z,9.73
2017-10-27T04:03:22.068Z,10.23
2017-10-27T04:05:49.471Z,7.97
2017-10-27T04:08:16.776Z,11.87
2017-10-27T04:10:44.094Z,12.40
2017-10-27T04:13:12.350Z,6.50
2017-10-27T04:15:39.653Z,8.90
2017-10-27T04:18:08.225Z,8.87
2017-10-27T04:20:35.552Z,7.43
2017-10-27T04:23:02.833Z,8.00
2017-10-27T04:25:30.151Z,12.40
2017-10-27T04:27:57.445Z,6.43
2017-10-27T04:30:24.761Z,10.70
2017-10-27T04:32:52.060Z,13.27
2017-10-27T04:35:19.376Z,12.63
2017-10-27T04:37:46.673Z,5.90
2017-10-27T04:40:14.037Z,13.90
2017-10-27T04:42:41.339Z,9.93
2017-10-27T04:45:09.310Z,11.93
2017-10-27T04:47:36.625Z,12.00
2017-10-27T04:50:03.921Z,10.23
2017-10-27T04:52:31.676Z,6.10
2017-10-27T04:54:58.973Z,13.13
2017-10-27T04:57:26.317Z,9.10
2017-10-27T04:59:53.600Z,9.60
2017-10-27T05:02:20.919Z,11.87
2017-10-27T05:04:48.222Z,7.40
2017-10-27T05:07:15.538Z,11.00
2017-10-27T05:09:43.273Z,11.17
2017-10-27T05:12:10.773Z,14.00
2017-10-27T05:14:38.092Z,6.83
2017-10-27T05:17:11.398Z,11.07
2017-10-27T05:19:44.551Z,6.90
2017-10-27T05:22:17.772Z,10.17
2017-10-27T05:24:45.093Z,12.53
2017-10-27T05:27:12.377Z,6.90
2017-10-27T05:29:39.692Z,11.80
2017-10-27T05:32:06.990Z,12.97
2017-10-27T05:34:34.305Z,10.13
2017-10-27T05:37:01.632Z,10.60
2017-10-27T05:39:28.932Z,9.50
2017-10-27T05:41:56.277Z,11.83
2017-10-27T05:44:23.853Z,4.60
2017-10-27T05:46:51.149Z,12.73
2017-10-27T05:49:18.456Z,13.33
2017-10-27T05:51:45.759Z,17.23
2017-10-27T05:54:13.069Z,15.40
2017-10-27T05:56:40.397Z,13.33
2017-10-27T05:59:07.713Z,11.17
2017-10-27T06:01:35.036Z,14.50
2017-10-27T06:04:02.385Z,14.37
2017-10-27T06:06:29.671Z,9.87
2017-10-27T06:08:56.972Z,14.93
2017-10-27T06:11:24.288Z,14.37
2017-10-27T06:13:51.591Z,9.80
2017-10-27T06:16:18.905Z,10.13
2017-10-27T06:18:46.201Z,10.90
2017-10-27T06:21:13.521Z,10.07
2017-10-27T06:23:40.869Z,12.77
2017-10-27T06:26:08.221Z,12.03
2017-10-27T06:28:35.520Z,10.87
2017-10-27T06:31:02.855Z,10.70
2017-10-27T06:33:30.150Z,14.90
2017-10-27T06:35:57.489Z,14.30
2017-10-27T06:38:24.853Z,10.10
2017-10-27T06:40:52.163Z,10.70
2017-10-27T06:43:19.456Z,7.93
2017-10-27T06:45:46.765Z,13.00
2017-10-27T06:48:14.065Z,12.60
2017-10-27T06:50:41.417Z,16.77
2017-10-27T06:53:08.735Z,16.60
2017-10-27T06:55:37.292Z,14.80
2017-10-27T06:58:04.653Z,9.70
2017-10-27T07:00:31.963Z,10.33
2017-10-27T07:03:00.089Z,11.93
2017-10-27T07:05:27.424Z,9.87
2017-10-27T07:07:54.721Z,7.33
2017-10-27T07:10:22.037Z,10.60
2017-10-27T07:12:49.377Z,9.97
2017-10-27T07:15:16.673Z,11.90
2017-10-27T07:17:43.996Z,14.30
2017-10-27T07:20:12.196Z,7.73
2017-10-27T07:22:39.516Z,7.80
2017-10-27T07:25:07.770Z,10.17
2017-10-27T07:27:35.109Z,8.83
2017-10-27T07:30:04.361Z,15.23
2017-10-27T07:32:31.896Z,7.10
2017-10-27T07:34:59.199Z,13.17
2017-10-27T07:37:26.547Z,8.20
2017-10-27T07:39:53.826Z,9.53
2017-10-27T07:42:21.202Z,5.97
2017-10-27T07:44:48.548Z,11.43
2017-10-27T07:47:15.878Z,11.97
2017-10-27T07:49:43.187Z,15.27
2017-10-27T07:52:10.493Z,10.63
2017-10-27T07:54:37.828Z,10.70
2017-10-27T07:57:05.120Z,9.03
2017-10-27T07:59:32.432Z,15.60
2017-10-27T08:01:59.760Z,9.13
2017-10-27T08:04:27.088Z,7.20
2017-10-27T08:06:54.376Z,8.07
2017-10-27T08:09:21.683Z,5.50
2017-10-27T08:11:48.981Z,8.30
2017-10-27T08:14:16.302Z,11.27
2017-10-27T08:16:43.616Z,10.70
2017-10-27T08:19:11.003Z,8.47
2017-10-27T08:21:38.315Z,11.60
2017-10-27T08:24:05.666Z,11.60
2017-10-27T08:26:33.018Z,6.80
2017-10-27T08:29:00.333Z,6.33
2017-10-27T08:31:27.629Z,10.30
2017-10-27T08:33:54.936Z,11.17
2017-10-27T08:36:22.245Z,9.57
2017-10-27T08:38:49.528Z,8.80
2017-10-27T08:41:16.847Z,7.53
2017-10-27T08:43:44.196Z,6.70
2017-10-27T08:46:11.500Z,9.90
2017-10-27T08:48:38.800Z,8.07
2017-10-27T08:51:06.116Z,11.80
2017-10-27T08:53:33.452Z,12.27
2017-10-27T08:56:00.762Z,8.53
2017-10-27T08:58:28.376Z,4.00
2017-10-27T09:00:55.685Z,6.00
2017-10-27T09:03:22.988Z,10.30
2017-10-27T09:05:50.299Z,4.80
2017-10-27T09:08:17.588Z,7.90
2017-10-27T09:10:44.909Z,6.80
2017-10-27T09:13:12.196Z,5.57
2017-10-27T09:15:39.488Z,6.87
2017-10-27T09:18:06.801Z,5.23
2017-10-27T09:20:34.099Z,8.83
2017-10-27T09:23:01.396Z,6.53
2017-10-27T09:25:28.693Z,8.67
2017-10-27T09:27:56.215Z,6.53
2017-10-27T09:30:23.500Z,8.70
2017-10-27T09:32:51.849Z,14.60
2017-10-27T09:35:19.152Z,14.60
2017-10-27T09:37:46.480Z,20.30
2017-10-27T09:40:13.792Z,12.00
2017-10-27T09:42:41.119Z,9.93
2017-10-27T09:45:08.410Z,8.73
2017-10-27T09:47:36.613Z,8.63
2017-10-27T09:50:03.924Z,10.93
2017-10-27T09:52:31.261Z,7.17
2017-10-27T09:54:58.561Z,9.60
2017-10-27T09:57:25.860Z,7.83
2017-10-27T09:59:54.093Z,8.77
2017-10-27T10:02:21.420Z,7.87
2017-10-27T10:04:48.821Z,5.43
2017-10-27T10:07:16.113Z,8.33
2017-10-27T10:09:43.437Z,9.57
2017-10-27T10:12:10.743Z,10.33
2017-10-27T10:14:38.385Z,8.37
2017-10-27T10:17:05.689Z,7.37
2017-10-27T10:19:33.064Z,6.13
2017-10-27T10:22:00.371Z,7.07
2017-10-27T10:24:27.677Z,7.13
2017-10-27T10:26:54.985Z,6.43
2017-10-27T10:29:23.228Z,6.50
2017-10-27T10:31:50.558Z,9.10
2017-10-27T10:34:17.853Z,10.77
2017-10-27T10:36:46.183Z,8.50
2017-10-27T10:39:13.498Z,7.00
2017-10-27T10:41:40.800Z,14.37
2017-10-27T10:44:08.111Z,8.40
2017-10-27T10:46:35.416Z,7.30
2017-10-27T10:49:02.725Z,7.47
2017-10-27T10:51:30.080Z,5.73
2017-10-27T10:53:57.360Z,6.47
2017-10-27T10:56:24.688Z,7.47
2017-10-27T10:58:51.980Z,5.33
2017-10-27T11:01:19.308Z,4.00
2017-10-27T11:03:46.616Z,5.80
2017-10-27T11:06:13.954Z,4.90
2017-10-27T11:08:41.256Z,4.10
2017-10-27T11:11:08.539Z,3.00
2017-10-27T11:13:35.876Z,8.43
2017-10-27T11:16:03.171Z,6.10
2017-10-27T11:18:30.504Z,7.80
2017-10-27T11:20:57.788Z,5.43
2017-10-27T11:23:25.091Z,4.13
2017-10-27T11:25:52.384Z,4.80
2017-10-27T11:28:19.690Z,7.10
2017-10-27T11:30:47.038Z,6.10
2017-10-27T11:33:15.275Z,5.00
2017-10-27T11:35:42.621Z,4.87
2017-10-27T11:38:09.925Z,8.17
2017-10-27T11:40:37.240Z,6.57
2017-10-27T11:43:04.531Z,10.33
2017-10-27T11:45:31.840Z,4.93
2017-10-27T11:47:59.135Z,6.13
2017-10-27T11:50:26.449Z,6.37
2017-10-27T11:52:53.758Z,9.17
2017-10-27T11:55:21.056Z,8.53
2017-10-27T11:57:48.341Z,7.83
2017-10-27T12:00:15.687Z,10.90
2017-10-27T12:02:43.580Z,3.83
2017-10-27T12:05:10.884Z,5.90
2017-10-27T12:07:38.214Z,7.13
2017-10-27T12:10:05.672Z,6.77
2017-10-27T12:12:33.277Z,4.07
2017-10-27T12:15:00.561Z,7.63
2017-10-27T12:17:27.860Z,5.03
2017-10-27T12:19:55.340Z,9.00
2017-10-27T12:22:22.640Z,4.97
2017-10-27T12:24:49.940Z,5.73
2017-10-27T12:27:17.277Z,6.20
2017-10-27T12:29:44.563Z,4.73
2017-10-27T12:32:11.908Z,12.30
2017-10-27T12:34:39.209Z,6.27
2017-10-27T12:37:06.528Z,7.33
2017-10-27T12:39:33.834Z,5.40
2017-10-27T12:42:01.168Z,5.70
2017-10-27T12:44:28.745Z,7.63
2017-10-27T12:46:56.043Z,6.30
2017-10-27T12:49:23.656Z,5.27
2017-10-27T12:51:50.939Z,5.97
2017-10-27T12:54:18.251Z,5.53
2017-10-27T12:56:45.590Z,6.93
2017-10-27T12:59:12.897Z,8.63
2017-10-27T13:01:41.164Z,6.93
2017-10-27T13:04:08.473Z,6.17
2017-10-27T13:06:35.774Z,7.33
2017-10-27T13:09:03.292Z,18.50
2017-10-27T13:11:30.624Z,7.83
2017-10-27T13:13:57.936Z,6.87
2017-10-27T13:16:25.256Z,9.37
2017-10-27T13:18:52.575Z,10.27
2017-10-27T13:21:19.879Z,6.00
2017-10-27T13:23:47.173Z,5.30
2017-10-27T13:26:14.485Z,5.30
2017-10-27T13:28:41.812Z,3.63
2017-10-27T13:31:09.135Z,4.23
2017-10-27T13:33:36.416Z,6.67
2017-10-27T13:36:03.728Z,7.53
2017-10-27T13:38:31.104Z,4.10
2017-10-27T13:40:58.411Z,4.90
2017-10-27T13:43:25.703Z,4.20
2017-10-27T13:45:53.258Z,4.20
2017-10-27T13:48:20.555Z,4.80
2017-10-27T13:50:47.869Z,4.80
2017-10-27T13:53:15.173Z,7.10
2017-10-27T13:55:43.436Z,11.20
2017-10-27T13:58:11.716Z,3.97
2017-10-27T14:00:39.027Z,2.63
2017-10-27T14:03:06.342Z,3.97
2017-10-27T14:05:33.633Z,5.13
2017-10-27T14:08:00.949Z,2.80
2017-10-27T14:10:28.248Z,4.90
2017-10-27T14:12:55.586Z,3.97
2017-10-27T14:15:22.863Z,7.47
2017-10-27T14:17:50.188Z,5.73
2017-10-27T14:20:17.490Z,5.57
2017-10-27T14:22:44.793Z,3.07
2017-10-27T14:25:13.059Z,1.97
2017-10-27T14:27:40.373Z,6.00
2017-10-27T14:30:07.659Z,3.67
2017-10-27T14:32:35.053Z,3.03
2017-10-27T14:35:02.361Z,4.27
2017-10-27T14:37:29.657Z,3.73
2017-10-27T14:39:56.960Z,5.13
2017-10-27T14:42:24.236Z,2.80
2017-10-27T14:44:51.548Z,7.83
2017-10-27T14:47:18.855Z,8.00
2017-10-27T14:49:46.155Z,5.17
2017-10-27T14:52:13.472Z,7.17
2017-10-27T14:54:40.786Z,3.40
2017-10-27T14:57:09.072Z,6.33
2017-10-27T14:59:36.380Z,4.83
2017-10-27T15:02:03.668Z,7.40
2017-10-27T15:04:31.023Z,5.93
2017-10-27T15:06:58.308Z,7.23
2017-10-27T15:09:25.628Z,8.27
2017-10-27T15:11:52.939Z,5.40
2017-10-27T15:14:20.236Z,5.57
2017-10-27T15:16:47.554Z,5.77
2017-10-27T15:19:14.849Z,7.30
2017-10-27T15:21:42.156Z,4.20
2017-10-27T15:24:09.488Z,4.43
2017-10-27T15:26:36.908Z,4.23
2017-10-27T15:29:04.220Z,6.30
2017-10-27T15:31:31.519Z,8.50
2017-10-27T15:33:58.809Z,8.77
2017-10-27T15:36:26.137Z,6.00
2017-10-27T15:38:53.424Z,11.63
2017-10-27T15:41:20.748Z,9.43
2017-10-27T15:43:48.059Z,8.17
2017-10-27T15:46:15.357Z,10.43
2017-10-27T15:48:42.687Z,12.03
2017-10-27T15:51:09.980Z,9.63
2017-10-27T15:53:37.282Z,7.37
2017-10-27T15:56:04.572Z,6.13
2017-10-27T15:58:32.168Z,4.63
2017-10-27T16:00:59.480Z,17.37
2017-10-27T16:03:26.788Z,3.60
2017-10-27T16:05:54.092Z,5.80
2017-10-27T16:08:21.434Z,4.10
2017-10-27T16:10:48.732Z,4.73
2017-10-27T16:13:16.078Z,4.23
2017-10-27T16:15:43.355Z,3.87
2017-10-27T16:18:10.659Z,5.77
2017-10-27T16:20:37.965Z,8.27
2017-10-27T16:23:05.294Z,7.60
2017-10-27T16:25:32.608Z,6.60
2017-10-27T16:27:59.901Z,3.67
2017-10-27T16:30:27.209Z,3.00
2017-10-27T16:32:54.497Z,4.33
2017-10-27T16:35:21.808Z,7.47
2017-10-27T16:37:49.136Z,4.03
2017-10-27T16:40:16.440Z,3.13
2017-10-27T16:42:43.741Z,5.57
2017-10-27T16:45:12.009Z,9.70
2017-10-27T16:47:39.330Z,9.40
2017-10-27T16:50:06.641Z,6.93
2017-10-27T16:52:33.971Z,8.23
2017-10-27T16:55:01.325Z,6.77
2017-10-27T16:57:28.600Z,7.60
2017-10-27T16:59:55.910Z,7.53
2017-10-27T17:02:23.217Z,5.47
2017-10-27T17:04:50.504Z,5.47
2017-10-27T17:07:17.814Z,9.00
2017-10-27T17:09:45.093Z,6.40
2017-10-27T17:12:12.428Z,3.93
2017-10-27T17:14:39.715Z,3.13
2017-10-27T17:17:07.064Z,5.00
2017-10-27T17:19:34.371Z,4.10
2017-10-27T17:22:01.701Z,6.13
2017-10-27T17:24:29.006Z,4.30
2017-10-27T17:26:56.365Z,3.70
2017-10-27T17:29:23.705Z,4.27
2017-10-27T17:31:51.008Z,3.43
2017-10-27T17:34:18.315Z,3.40
2017-10-27T17:36:45.642Z,6.60
2017-10-27T17:39:12.976Z,4.73
2017-10-27T17:41:40.268Z,4.00
2017-10-27T17:44:07.583Z,5.10
2017-10-27T17:46:37.045Z,9.83
2017-10-27T17:49:04.357Z,9.37
2017-10-27T17:51:31.652Z,10.37
2017-10-27T17:53:59.032Z,8.70
2017-10-27T17:56:26.340Z,3.83
2017-10-27T17:58:53.676Z,5.57
2017-10-27T18:01:20.970Z,6.23
2017-10-27T18:03:48.344Z,7.00
2017-10-27T18:06:16.616Z,3.70
2017-10-27T18:08:43.919Z,6.73
2017-10-27T18:11:11.224Z,6.90
2017-10-27T18:13:38.512Z,4.33
2017-10-27T18:16:05.812Z,5.67
2017-10-27T18:18:33.105Z,6.30
2017-10-27T18:21:00.454Z,3.70
2017-10-27T18:23:27.764Z,6.10
2017-10-27T18:25:55.068Z,8.87
2017-10-27T18:28:23.356Z,4.23
2017-10-27T18:30:50.661Z,4.10
2017-10-27T18:33:17.960Z,4.53
2017-10-27T18:35:45.292Z,6.07
2017-10-27T18:38:12.601Z,6.30
2017-10-27T18:40:40.818Z,4.50
2017-10-27T18:43:09.100Z,6.03
2017-10-27T18:45:36.423Z,4.83
2017-10-27T18:48:03.739Z,5.73
2017-10-27T18:50:31.020Z,6.20
2017-10-27T18:52:58.315Z,5.90
2017-10-27T18:55:25.616Z,10.40
2017-10-27T18:57:52.929Z,4.40
2017-10-27T19:00:20.246Z,7.50
2017-10-27T19:02:47.556Z,3.20
2017-10-27T19:05:14.851Z,3.60
2017-10-27T19:07:42.161Z,4.30
2017-10-27T19:10:09.450Z,5.70
2017-10-27T19:12:36.844Z,5.37
2017-10-27T19:15:04.168Z,7.77
2017-10-27T19:17:32.391Z,5.53
2017-10-27T19:19:59.716Z,5.70
2017-10-27T19:22:27.024Z,6.60
2017-10-27T19:24:54.317Z,6.90
2017-10-27T19:27:21.664Z,5.80
2017-10-27T19:29:49.943Z,3.90
2017-10-27T19:32:17.260Z,12.43
2017-10-27T19:34:44.573Z,4.63
2017-10-27T19:37:11.895Z,6.40
2017-10-27T19:39:39.189Z,5.90
2017-10-27T19:42:06.477Z,4.53
2017-10-27T19:44:33.796Z,4.50
2017-10-27T19:47:01.090Z,3.33
2017-10-27T19:49:28.388Z,7.60
2017-10-27T19:51:55.676Z,4.00
2017-10-27T19:54:23.012Z,5.07
2017-10-27T19:56:50.300Z,7.37
2017-10-27T19:59:17.664Z,4.57
2017-10-27T20:01:44.949Z,6.87
2017-10-27T20:04:12.282Z,6.70
2017-10-27T20:06:39.584Z,6.47
2017-10-27T20:09:06.883Z,5.13
2017-10-27T20:11:34.177Z,5.70
2017-10-27T20:14:01.476Z,6.80
2017-10-27T20:16:28.911Z,4.70
2017-10-27T20:18:56.241Z,3.53
2017-10-27T20:21:23.545Z,8.70
2017-10-27T20:23:50.835Z,6.13
2017-10-27T20:26:18.135Z,7.40
2017-10-27T20:28:45.443Z,5.27
2017-10-27T20:31:12.760Z,8.03
2017-10-27T20:33:40.106Z,7.03
2017-10-27T20:36:07.413Z,4.50
2017-10-27T20:38:34.705Z,5.93
2017-10-27T20:41:02.013Z,6.00
2017-10-27T20:43:29.304Z,4.07
2017-10-27T20:45:56.642Z,2.87
2017-10-27T20:48:24.104Z,7.33
2017-10-27T20:50:51.416Z,8.33
2017-10-27T20:53:18.731Z,3.40
2017-10-27T20:55:46.974Z,4.53
2017-10-27T20:58:14.274Z,5.03
2017-10-27T21:00:41.569Z,8.67
2017-10-27T21:03:08.863Z,6.00
2017-10-27T21:05:36.159Z,5.40
2017-10-27T21:08:03.484Z,4.50
2017-10-27T21:10:30.779Z,7.67
2017-10-27T21:12:59.103Z,5.23
2017-10-27T21:15:26.695Z,5.00
2017-10-27T21:17:54.005Z,7.33
2017-10-27T21:20:22.296Z,11.77
2017-10-27T21:22:49.673Z,4.20
2017-10-27T21:25:17.000Z,5.00
2017-10-27T21:27:44.301Z,4.20
2017-10-27T21:30:11.588Z,6.03
2017-10-27T21:32:38.909Z,8.90
2017-10-27T21:35:06.223Z,4.43
2017-10-27T21:37:33.516Z,6.33
2017-10-27T21:40:00.821Z,3.70
2017-10-27T21:42:29.032Z,3.33
2017-10-27T21:44:56.343Z,4.00
2017-10-27T21:47:23.620Z,5.77
2017-10-27T21:49:50.936Z,11.17
2017-10-27T21:52:18.284Z,8.77
2017-10-27T21:54:45.597Z,5.70
2017-10-27T21:57:12.901Z,3.90
2017-10-27T21:59:40.200Z,5.47
2017-10-27T22:02:07.505Z,3.80
2017-10-27T22:04:34.837Z,5.43
2017-10-27T22:07:03.128Z,9.80
2017-10-27T22:09:30.436Z,11.90
2017-10-27T22:11:57.748Z,4.10
2017-10-27T22:14:25.085Z,8.20
2017-10-27T22:16:52.388Z,3.90
2017-10-27T22:19:19.692Z,10.03
2017-10-27T22:21:46.991Z,4.23
2017-10-27T22:24:14.289Z,6.07
2017-10-27T22:26:41.589Z,4.80
2017-10-27T22:29:08.908Z,5.77
2017-10-27T22:31:36.217Z,4.10
2017-10-27T22:34:03.508Z,6.37
2017-10-27T22:36:30.825Z,6.13
2017-10-27T22:38:58.125Z,5.73
2017-10-27T22:41:25.480Z,7.73
2017-10-27T22:43:53.594Z,4.50
2017-10-27T22:46:20.906Z,13.10
2017-10-27T22:48:48.296Z,4.73
2017-10-27T22:51:15.584Z,6.40
2017-10-27T22:53:42.884Z,8.60
2017-10-27T22:56:10.195Z,10.67
2017-10-27T22:58:37.496Z,5.90
2017-10-27T23:01:05.111Z,4.10
2017-10-27T23:03:32.420Z,10.60
2017-10-27T23:05:59.716Z,9.00
2017-10-27T23:08:27.036Z,6.47
2017-10-27T23:10:54.320Z,4.80
2017-10-27T23:13:21.633Z,11.63
2017-10-27T23:15:48.932Z,8.60
2017-10-27T23:18:16.275Z,3.33
2017-10-27T23:20:43.559Z,6.23
2017-10-27T23:23:10.845Z,4.70
2017-10-27T23:25:38.148Z,7.17
2017-10-27T23:28:05.481Z,5.60
2017-10-27T23:30:32.789Z,8.53
2017-10-27T23:33:00.075Z,7.13
2017-10-27T23:35:27.393Z,5.40
2017-10-27T23:37:54.701Z,8.20
2017-10-27T23:40:22.330Z,6.30
2017-10-27T23:42:49.616Z,9.27
2017-10-27T23:45:16.929Z,7.10
2017-10-27T23:47:44.532Z,10.20
2017-10-27T23:50:11.848Z,12.13
2017-10-27T23:52:39.167Z,7.77
2017-10-27T23:55:06.484Z,5.30
2017-10-27T23:57:33.815Z,8.60
